sensor_id;sensor_type;location;lat;lon;timestamp;temperature;humidity
30206;DHT22;17010;51.306;3.150;2023-05-01T00:01:42;14.00;99.90
30206;DHT22;17010;51.306;3.150;2023-05-01T00:04:08;14.00;99.90
30206;DHT22;17010;51.306;3.150;2023-05-01T00:06:36;14.00;99.90
30206;DHT22;17010;51.306;3.150;2023-05-01T00:09:03;14.00;99.90
30206;DHT22;17010;51.306;3.150;2023-05-01T00:11:30;14.00;99.90
30206;DHT22;17010;51.306;3.150;2023-05-01T00:13:56;14.00;99.90
30206;DHT22;17010;51.306;3.150;2023-05-01T00:16:22;14.00;99.90
30206;DHT22;17010;51.306;3.150;2023-05-01T00:18:49;14.00;99.90
30206;DHT22;17010;51.306;3.150;2023-05-01T00:21:15;14.00;99.90
30206;DHT22;17010;51.306;3.150;2023-05-01T00:23:41;14.00;99.90
30206;DHT22;17010;51.306;3.150;2023-05-01T00:26:08;14.00;99.90
30206;DHT22;17010;51.306;3.150;2023-05-01T00:28:34;14.00;99.90
30206;DHT22;17010;51.306;3.150;2023-05-01T00:31:00;14.00;99.90
30206;DHT22;17010;51.306;3.150;2023-05-01T00:33:27;14.00;99.90
30206;DHT22;17010;51.306;3.150;2023-05-01T00:35:54;14.00;99.90
30206;DHT22;17010;51.306;3.150;2023-05-01T00:38:20;14.00;99.90
30206;DHT22;17010;51.306;3.150;2023-05-01T00:40:48;14.00;99.90
30206;DHT22;17010;51.306;3.150;2023-05-01T00:43:15;14.00;99.90
30206;DHT22;17010;51.306;3.150;2023-05-01T00:45:45;14.00;99.90
30206;DHT22;17010;51.306;3.150;2023-05-01T00:48:11;14.00;99.90
30206;DHT22;17010;51.306;3.150;2023-05-01T00:50:37;14.00;99.90
30206;DHT22;17010;51.306;3.150;2023-05-01T00:53:04;14.00;99.90
30206;DHT22;17010;51.306;3.150;2023-05-01T00:55:30;14.00;99.90
30206;DHT22;17010;51.306;3.150;2023-05-01T00:57:58;14.00;99.90
30206;DHT22;17010;51.306;3.150;2023-05-01T01:00:26;14.00;99.90
30206;DHT22;17010;51.306;3.150;2023-05-01T01:02:54;14.00;99.90
30206;DHT22;17010;51.306;3.150;2023-05-01T01:05:21;14.00;99.90
30206;DHT22;17010;51.306;3.150;2023-05-01T01:08:06;14.10;99.90
30206;DHT22;17010;51.306;3.150;2023-05-01T01:13:29;14.00;99.90
30206;DHT22;17010;51.306;3.150;2023-05-01T01:18:54;14.00;99.90
30206;DHT22;17010;51.306;3.150;2023-05-01T01:21:26;14.00;99.90
30206;DHT22;17010;51.306;3.150;2023-05-01T01:24:04;14.00;99.90
30206;DHT22;17010;51.306;3.150;2023-05-01T01:36:12;14.00;99.90
30206;DHT22;17010;51.306;3.150;2023-05-01T01:38:44;13.90;99.90
30206;DHT22;17010;51.306;3.150;2023-05-01T01:41:13;13.90;99.90
30206;DHT22;17010;51.306;3.150;2023-05-01T01:43:48;13.90;99.90
30206;DHT22;17010;51.306;3.150;2023-05-01T01:46:17;13.90;99.90
30206;DHT22;17010;51.306;3.150;2023-05-01T01:48:46;13.90;99.90
30206;DHT22;17010;51.306;3.150;2023-05-01T01:51:15;13.90;99.90
30206;DHT22;17010;51.306;3.150;2023-05-01T01:53:45;13.90;99.90
30206;DHT22;17010;51.306;3.150;2023-05-01T01:56:15;13.90;99.90
30206;DHT22;17010;51.306;3.150;2023-05-01T01:58:43;13.90;99.90
30206;DHT22;17010;51.306;3.150;2023-05-01T02:01:10;13.90;99.90
30206;DHT22;17010;51.306;3.150;2023-05-01T02:03:38;14.00;99.90
30206;DHT22;17010;51.306;3.150;2023-05-01T02:06:05;13.90;99.90
30206;DHT22;17010;51.306;3.150;2023-05-01T02:08:31;13.90;99.90
30206;DHT22;17010;51.306;3.150;2023-05-01T02:10:59;13.90;99.90
30206;DHT22;17010;51.306;3.150;2023-05-01T02:13:29;13.90;99.90
30206;DHT22;17010;51.306;3.150;2023-05-01T02:15:59;13.90;99.90
30206;DHT22;17010;51.306;3.150;2023-05-01T02:18:26;13.90;99.90
30206;DHT22;17010;51.306;3.150;2023-05-01T02:20:56;13.90;99.90
30206;DHT22;17010;51.306;3.150;2023-05-01T02:23:28;13.90;99.90
30206;DHT22;17010;51.306;3.150;2023-05-01T02:25:56;13.90;99.90
30206;DHT22;17010;51.306;3.150;2023-05-01T02:28:23;13.90;99.90
30206;DHT22;17010;51.306;3.150;2023-05-01T02:30:52;13.90;99.90
30206;DHT22;17010;51.306;3.150;2023-05-01T02:33:20;13.90;99.90
30206;DHT22;17010;51.306;3.150;2023-05-01T02:35:47;13.90;99.90
30206;DHT22;17010;51.306;3.150;2023-05-01T02:38:14;13.90;99.90
30206;DHT22;17010;51.306;3.150;2023-05-01T02:40:47;13.90;99.90
30206;DHT22;17010;51.306;3.150;2023-05-01T02:43:17;13.90;99.90
30206;DHT22;17010;51.306;3.150;2023-05-01T02:45:46;13.90;99.90
30206;DHT22;17010;51.306;3.150;2023-05-01T02:48:15;13.90;99.90
30206;DHT22;17010;51.306;3.150;2023-05-01T02:50:44;13.90;99.90
30206;DHT22;17010;51.306;3.150;2023-05-01T02:53:12;13.90;99.90
30206;DHT22;17010;51.306;3.150;2023-05-01T02:55:38;13.90;99.90
30206;DHT22;17010;51.306;3.150;2023-05-01T02:58:05;13.90;99.90
30206;DHT22;17010;51.306;3.150;2023-05-01T03:00:33;13.90;99.90
30206;DHT22;17010;51.306;3.150;2023-05-01T03:03:00;13.90;99.90
30206;DHT22;17010;51.306;3.150;2023-05-01T03:05:27;13.90;99.90
30206;DHT22;17010;51.306;3.150;2023-05-01T03:07:53;13.90;99.90
30206;DHT22;17010;51.306;3.150;2023-05-01T03:10:20;13.90;99.90
30206;DHT22;17010;51.306;3.150;2023-05-01T03:12:46;13.80;99.90
30206;DHT22;17010;51.306;3.150;2023-05-01T03:15:12;13.80;99.90
30206;DHT22;17010;51.306;3.150;2023-05-01T03:17:38;13.70;99.90
30206;DHT22;17010;51.306;3.150;2023-05-01T03:20:05;13.60;99.90
30206;DHT22;17010;51.306;3.150;2023-05-01T03:22:31;13.60;99.90
30206;DHT22;17010;51.306;3.150;2023-05-01T03:24:58;13.50;99.90
30206;DHT22;17010;51.306;3.150;2023-05-01T03:27:25;13.50;99.90
30206;DHT22;17010;51.306;3.150;2023-05-01T03:29:51;13.50;99.90
30206;DHT22;17010;51.306;3.150;2023-05-01T03:32:17;13.40;99.90
30206;DHT22;17010;51.306;3.150;2023-05-01T03:34:45;13.40;99.90
30206;DHT22;17010;51.306;3.150;2023-05-01T03:37:11;13.40;99.90
30206;DHT22;17010;51.306;3.150;2023-05-01T03:39:38;13.30;99.90
30206;DHT22;17010;51.306;3.150;2023-05-01T03:42:05;13.40;99.90
30206;DHT22;17010;51.306;3.150;2023-05-01T03:44:31;13.40;99.90
30206;DHT22;17010;51.306;3.150;2023-05-01T03:46:58;13.40;99.90
30206;DHT22;17010;51.306;3.150;2023-05-01T03:49:25;13.50;99.90
30206;DHT22;17010;51.306;3.150;2023-05-01T03:51:51;13.50;99.90
30206;DHT22;17010;51.306;3.150;2023-05-01T03:54:17;13.50;99.90
30206;DHT22;17010;51.306;3.150;2023-05-01T03:56:43;13.50;99.90
30206;DHT22;17010;51.306;3.150;2023-05-01T03:59:10;13.40;99.90
30206;DHT22;17010;51.306;3.150;2023-05-01T04:01:37;13.50;99.90
30206;DHT22;17010;51.306;3.150;2023-05-01T04:04:04;13.50;99.90
30206;DHT22;17010;51.306;3.150;2023-05-01T04:06:30;13.40;99.90
30206;DHT22;17010;51.306;3.150;2023-05-01T04:08:57;13.40;99.90
30206;DHT22;17010;51.306;3.150;2023-05-01T04:11:23;13.40;99.90
30206;DHT22;17010;51.306;3.150;2023-05-01T04:13:49;13.40;99.90
30206;DHT22;17010;51.306;3.150;2023-05-01T04:16:16;13.40;99.90
30206;DHT22;17010;51.306;3.150;2023-05-01T04:18:42;13.40;99.90
30206;DHT22;17010;51.306;3.150;2023-05-01T04:21:11;13.30;99.90
30206;DHT22;17010;51.306;3.150;2023-05-01T04:23:39;13.40;99.90
30206;DHT22;17010;51.306;3.150;2023-05-01T04:26:05;13.30;99.90
30206;DHT22;17010;51.306;3.150;2023-05-01T04:28:33;13.30;99.90
30206;DHT22;17010;51.306;3.150;2023-05-01T04:30:59;13.30;99.90
30206;DHT22;17010;51.306;3.150;2023-05-01T04:33:25;13.20;99.90
30206;DHT22;17010;51.306;3.150;2023-05-01T04:35:53;13.10;99.90
30206;DHT22;17010;51.306;3.150;2023-05-01T04:38:19;13.10;99.90
30206;DHT22;17010;51.306;3.150;2023-05-01T04:40:45;13.20;99.90
30206;DHT22;17010;51.306;3.150;2023-05-01T04:43:12;13.10;99.90
30206;DHT22;17010;51.306;3.150;2023-05-01T04:45:38;13.20;99.90
30206;DHT22;17010;51.306;3.150;2023-05-01T04:48:05;13.10;99.90
30206;DHT22;17010;51.306;3.150;2023-05-01T04:50:32;13.20;99.90
30206;DHT22;17010;51.306;3.150;2023-05-01T04:53:00;13.20;99.90
30206;DHT22;17010;51.306;3.150;2023-05-01T04:55:26;13.10;99.90
30206;DHT22;17010;51.306;3.150;2023-05-01T04:57:52;13.10;99.90
30206;DHT22;17010;51.306;3.150;2023-05-01T05:00:18;13.10;99.90
30206;DHT22;17010;51.306;3.150;2023-05-01T05:02:45;13.10;99.90
30206;DHT22;17010;51.306;3.150;2023-05-01T05:05:13;13.10;99.90
30206;DHT22;17010;51.306;3.150;2023-05-01T05:07:40;13.10;99.90
30206;DHT22;17010;51.306;3.150;2023-05-01T05:10:07;13.10;99.90
30206;DHT22;17010;51.306;3.150;2023-05-01T05:12:33;13.10;99.90
30206;DHT22;17010;51.306;3.150;2023-05-01T05:15:00;13.10;99.90
30206;DHT22;17010;51.306;3.150;2023-05-01T05:17:26;13.00;99.90
30206;DHT22;17010;51.306;3.150;2023-05-01T05:19:52;12.90;99.90
30206;DHT22;17010;51.306;3.150;2023-05-01T05:22:19;12.80;99.90
30206;DHT22;17010;51.306;3.150;2023-05-01T05:24:45;12.50;99.90
30206;DHT22;17010;51.306;3.150;2023-05-01T05:27:13;12.30;99.90
30206;DHT22;17010;51.306;3.150;2023-05-01T05:29:40;12.30;99.90
30206;DHT22;17010;51.306;3.150;2023-05-01T05:32:07;12.20;99.90
30206;DHT22;17010;51.306;3.150;2023-05-01T05:34:33;12.10;99.90
30206;DHT22;17010;51.306;3.150;2023-05-01T05:37:00;12.20;99.90
30206;DHT22;17010;51.306;3.150;2023-05-01T05:39:27;12.30;99.90
30206;DHT22;17010;51.306;3.150;2023-05-01T05:41:53;12.40;99.90
30206;DHT22;17010;51.306;3.150;2023-05-01T05:44:20;12.50;99.90
30206;DHT22;17010;51.306;3.150;2023-05-01T05:46:46;12.60;99.90
30206;DHT22;17010;51.306;3.150;2023-05-01T05:49:13;12.80;99.90
30206;DHT22;17010;51.306;3.150;2023-05-01T05:51:39;13.00;99.90
30206;DHT22;17010;51.306;3.150;2023-05-01T05:54:05;13.10;99.90
30206;DHT22;17010;51.306;3.150;2023-05-01T05:56:32;13.10;99.90
30206;DHT22;17010;51.306;3.150;2023-05-01T05:58:58;13.00;99.90
30206;DHT22;17010;51.306;3.150;2023-05-01T06:01:30;12.80;99.90
30206;DHT22;17010;51.306;3.150;2023-05-01T06:04:03;12.70;99.90
30206;DHT22;17010;51.306;3.150;2023-05-01T06:06:30;12.70;99.90
30206;DHT22;17010;51.306;3.150;2023-05-01T06:08:57;12.80;99.90
30206;DHT22;17010;51.306;3.150;2023-05-01T06:11:26;12.90;99.90
30206;DHT22;17010;51.306;3.150;2023-05-01T06:13:56;12.90;99.90
30206;DHT22;17010;51.306;3.150;2023-05-01T06:16:28;12.90;99.90
30206;DHT22;17010;51.306;3.150;2023-05-01T06:18:54;13.10;99.90
30206;DHT22;17010;51.306;3.150;2023-05-01T06:21:22;13.10;99.90
30206;DHT22;17010;51.306;3.150;2023-05-01T06:23:48;13.10;99.90
30206;DHT22;17010;51.306;3.150;2023-05-01T06:26:14;13.10;99.90
30206;DHT22;17010;51.306;3.150;2023-05-01T06:28:40;13.00;99.90
30206;DHT22;17010;51.306;3.150;2023-05-01T06:31:06;13.10;99.90
30206;DHT22;17010;51.306;3.150;2023-05-01T06:33:33;13.20;99.90
30206;DHT22;17010;51.306;3.150;2023-05-01T06:36:00;13.30;99.90
30206;DHT22;17010;51.306;3.150;2023-05-01T06:38:28;13.40;99.90
30206;DHT22;17010;51.306;3.150;2023-05-01T06:40:54;13.60;99.90
30206;DHT22;17010;51.306;3.150;2023-05-01T06:43:21;13.80;99.90
30206;DHT22;17010;51.306;3.150;2023-05-01T06:45:47;13.90;99.90
30206;DHT22;17010;51.306;3.150;2023-05-01T06:48:15;14.00;99.90
30206;DHT22;17010;51.306;3.150;2023-05-01T06:50:41;14.40;99.90
30206;DHT22;17010;51.306;3.150;2023-05-01T06:53:07;14.50;99.90
30206;DHT22;17010;51.306;3.150;2023-05-01T06:55:33;14.70;99.90
30206;DHT22;17010;51.306;3.150;2023-05-01T06:57:59;14.80;99.90
30206;DHT22;17010;51.306;3.150;2023-05-01T07:00:26;14.80;99.90
30206;DHT22;17010;51.306;3.150;2023-05-01T07:02:59;14.80;99.90
30206;DHT22;17010;51.306;3.150;2023-05-01T07:05:29;14.70;99.90
30206;DHT22;17010;51.306;3.150;2023-05-01T07:07:56;14.70;99.90
30206;DHT22;17010;51.306;3.150;2023-05-01T07:10:22;14.70;99.90
30206;DHT22;17010;51.306;3.150;2023-05-01T07:12:48;14.90;99.90
30206;DHT22;17010;51.306;3.150;2023-05-01T07:15:14;14.90;99.90
30206;DHT22;17010;51.306;3.150;2023-05-01T07:17:41;14.90;99.90
30206;DHT22;17010;51.306;3.150;2023-05-01T07:20:07;14.90;99.90
30206;DHT22;17010;51.306;3.150;2023-05-01T07:22:41;14.90;99.90
30206;DHT22;17010;51.306;3.150;2023-05-01T07:25:08;14.90;99.90
30206;DHT22;17010;51.306;3.150;2023-05-01T07:27:35;14.90;99.90
30206;DHT22;17010;51.306;3.150;2023-05-01T07:30:02;15.00;99.90
30206;DHT22;17010;51.306;3.150;2023-05-01T07:32:29;15.00;99.90
30206;DHT22;17010;51.306;3.150;2023-05-01T07:34:57;14.90;99.90
30206;DHT22;17010;51.306;3.150;2023-05-01T07:37:24;15.10;99.90
30206;DHT22;17010;51.306;3.150;2023-05-01T07:39:52;15.10;99.90
30206;DHT22;17010;51.306;3.150;2023-05-01T07:42:31;15.40;99.90
30206;DHT22;17010;51.306;3.150;2023-05-01T07:45:16;15.60;99.90
30206;DHT22;17010;51.306;3.150;2023-05-01T07:47:42;15.80;99.90
30206;DHT22;17010;51.306;3.150;2023-05-01T07:50:09;15.80;99.90
30206;DHT22;17010;51.306;3.150;2023-05-01T07:52:36;15.70;99.90
30206;DHT22;17010;51.306;3.150;2023-05-01T07:55:03;15.60;99.90
30206;DHT22;17010;51.306;3.150;2023-05-01T07:57:32;15.60;99.90
30206;DHT22;17010;51.306;3.150;2023-05-01T07:59:58;15.70;99.90
30206;DHT22;17010;51.306;3.150;2023-05-01T08:02:25;15.70;99.90
30206;DHT22;17010;51.306;3.150;2023-05-01T08:04:52;15.90;99.90
30206;DHT22;17010;51.306;3.150;2023-05-01T08:07:18;15.90;99.90
30206;DHT22;17010;51.306;3.150;2023-05-01T08:09:45;16.00;99.90
30206;DHT22;17010;51.306;3.150;2023-05-01T08:12:13;16.10;99.90
30206;DHT22;17010;51.306;3.150;2023-05-01T08:14:56;16.00;99.90
30206;DHT22;17010;51.306;3.150;2023-05-01T08:17:24;16.00;99.90
30206;DHT22;17010;51.306;3.150;2023-05-01T08:19:50;15.80;99.90
30206;DHT22;17010;51.306;3.150;2023-05-01T08:22:19;15.90;99.90
30206;DHT22;17010;51.306;3.150;2023-05-01T08:24:45;16.00;99.90
30206;DHT22;17010;51.306;3.150;2023-05-01T08:27:11;16.10;99.90
30206;DHT22;17010;51.306;3.150;2023-05-01T08:29:37;16.10;99.90
30206;DHT22;17010;51.306;3.150;2023-05-01T08:32:03;16.30;99.90
30206;DHT22;17010;51.306;3.150;2023-05-01T08:34:52;16.30;99.90
30206;DHT22;17010;51.306;3.150;2023-05-01T08:37:18;16.40;99.90
30206;DHT22;17010;51.306;3.150;2023-05-01T08:39:44;16.60;99.90
30206;DHT22;17010;51.306;3.150;2023-05-01T08:42:10;16.80;99.90
30206;DHT22;17010;51.306;3.150;2023-05-01T08:44:38;17.20;99.90
30206;DHT22;17010;51.306;3.150;2023-05-01T08:47:14;17.50;99.90
30206;DHT22;17010;51.306;3.150;2023-05-01T08:49:41;17.70;99.90
30206;DHT22;17010;51.306;3.150;2023-05-01T08:52:09;18.20;99.90
30206;DHT22;17010;51.306;3.150;2023-05-01T08:54:46;18.60;99.90
30206;DHT22;17010;51.306;3.150;2023-05-01T08:57:14;18.60;99.90
30206;DHT22;17010;51.306;3.150;2023-05-01T08:59:41;18.70;99.90
30206;DHT22;17010;51.306;3.150;2023-05-01T09:02:08;18.60;99.90
30206;DHT22;17010;51.306;3.150;2023-05-01T09:04:39;18.80;99.90
30206;DHT22;17010;51.306;3.150;2023-05-01T09:07:06;18.80;99.90
30206;DHT22;17010;51.306;3.150;2023-05-01T09:09:32;19.00;99.90
30206;DHT22;17010;51.306;3.150;2023-05-01T09:12:02;19.10;99.90
30206;DHT22;17010;51.306;3.150;2023-05-01T09:14:34;19.30;99.90
30206;DHT22;17010;51.306;3.150;2023-05-01T09:17:00;19.30;99.90
30206;DHT22;17010;51.306;3.150;2023-05-01T09:19:26;19.30;99.90
30206;DHT22;17010;51.306;3.150;2023-05-01T09:21:53;19.00;99.90
30206;DHT22;17010;51.306;3.150;2023-05-01T09:24:24;18.50;99.90
30206;DHT22;17010;51.306;3.150;2023-05-01T09:26:51;18.20;99.90
30206;DHT22;17010;51.306;3.150;2023-05-01T09:29:36;18.00;99.90
30206;DHT22;17010;51.306;3.150;2023-05-01T09:32:16;18.10;99.90
30206;DHT22;17010;51.306;3.150;2023-05-01T09:34:44;18.20;99.90
30206;DHT22;17010;51.306;3.150;2023-05-01T09:37:33;18.30;99.90
30206;DHT22;17010;51.306;3.150;2023-05-01T09:40:12;18.30;99.90
30206;DHT22;17010;51.306;3.150;2023-05-01T09:42:46;19.00;99.90
30206;DHT22;17010;51.306;3.150;2023-05-01T09:45:14;19.10;99.90
30206;DHT22;17010;51.306;3.150;2023-05-01T09:47:41;19.30;99.90
30206;DHT22;17010;51.306;3.150;2023-05-01T09:50:11;19.10;99.90
30206;DHT22;17010;51.306;3.150;2023-05-01T09:52:53;19.50;99.90
30206;DHT22;17010;51.306;3.150;2023-05-01T09:55:19;19.20;99.90
30206;DHT22;17010;51.306;3.150;2023-05-01T09:57:46;19.10;99.90
30206;DHT22;17010;51.306;3.150;2023-05-01T10:00:13;18.60;99.90
30206;DHT22;17010;51.306;3.150;2023-05-01T10:02:42;18.70;99.90
30206;DHT22;17010;51.306;3.150;2023-05-01T10:05:10;18.70;99.90
30206;DHT22;17010;51.306;3.150;2023-05-01T10:07:36;19.10;99.90
30206;DHT22;17010;51.306;3.150;2023-05-01T10:10:18;19.30;99.90
30206;DHT22;17010;51.306;3.150;2023-05-01T10:12:47;18.90;99.90
30206;DHT22;17010;51.306;3.150;2023-05-01T10:15:13;18.90;99.90
30206;DHT22;17010;51.306;3.150;2023-05-01T10:17:41;19.50;99.90
30206;DHT22;17010;51.306;3.150;2023-05-01T10:20:39;19.50;99.90
30206;DHT22;17010;51.306;3.150;2023-05-01T10:23:09;19.30;99.90
30206;DHT22;17010;51.306;3.150;2023-05-01T10:25:36;19.30;99.90
30206;DHT22;17010;51.306;3.150;2023-05-01T10:28:02;19.40;99.90
30206;DHT22;17010;51.306;3.150;2023-05-01T10:30:29;19.10;99.90
30206;DHT22;17010;51.306;3.150;2023-05-01T10:32:57;19.10;99.90
30206;DHT22;17010;51.306;3.150;2023-05-01T10:35:53;19.30;99.90
30206;DHT22;17010;51.306;3.150;2023-05-01T10:38:25;19.50;99.90
30206;DHT22;17010;51.306;3.150;2023-05-01T10:40:51;19.70;99.90
30206;DHT22;17010;51.306;3.150;2023-05-01T10:43:32;20.40;99.90
30206;DHT22;17010;51.306;3.150;2023-05-01T10:51:22;21.20;99.90
30206;DHT22;17010;51.306;3.150;2023-05-01T10:56:41;21.70;99.90
30206;DHT22;17010;51.306;3.150;2023-05-01T10:59:08;21.60;99.90
30206;DHT22;17010;51.306;3.150;2023-05-01T11:01:45;21.30;99.90
30206;DHT22;17010;51.306;3.150;2023-05-01T11:04:46;21.50;99.90
30206;DHT22;17010;51.306;3.150;2023-05-01T11:07:14;21.80;99.90
30206;DHT22;17010;51.306;3.150;2023-05-01T11:09:52;22.00;99.90
30206;DHT22;17010;51.306;3.150;2023-05-01T11:12:48;21.70;99.90
30206;DHT22;17010;51.306;3.150;2023-05-01T11:15:30;22.00;99.90
30206;DHT22;17010;51.306;3.150;2023-05-01T11:17:59;22.00;99.90
30206;DHT22;17010;51.306;3.150;2023-05-01T11:22:55;23.20;99.90
30206;DHT22;17010;51.306;3.150;2023-05-01T11:25:24;23.20;99.90
30206;DHT22;17010;51.306;3.150;2023-05-01T11:28:02;23.30;99.90
30206;DHT22;17010;51.306;3.150;2023-05-01T11:30:50;23.50;99.90
30206;DHT22;17010;51.306;3.150;2023-05-01T11:33:21;23.60;99.90
30206;DHT22;17010;51.306;3.150;2023-05-01T11:36:05;23.20;99.90
30206;DHT22;17010;51.306;3.150;2023-05-01T11:38:37;22.70;99.90
30206;DHT22;17010;51.306;3.150;2023-05-01T11:41:05;22.50;99.90
30206;DHT22;17010;51.306;3.150;2023-05-01T11:43:33;21.90;99.90
30206;DHT22;17010;51.306;3.150;2023-05-01T11:46:31;21.90;99.90
30206;DHT22;17010;51.306;3.150;2023-05-01T11:48:58;21.90;99.90
30206;DHT22;17010;51.306;3.150;2023-05-01T11:51:32;21.40;99.90
30206;DHT22;17010;51.306;3.150;2023-05-01T11:54:25;20.90;99.90
30206;DHT22;17010;51.306;3.150;2023-05-01T11:56:58;20.70;99.90
30206;DHT22;17010;51.306;3.150;2023-05-01T11:59:25;20.90;99.90
30206;DHT22;17010;51.306;3.150;2023-05-01T12:01:52;20.90;99.90
30206;DHT22;17010;51.306;3.150;2023-05-01T12:04:26;20.40;99.90
30206;DHT22;17010;51.306;3.150;2023-05-01T12:06:53;20.50;99.90
30206;DHT22;17010;51.306;3.150;2023-05-01T12:09:24;20.50;99.90
30206;DHT22;17010;51.306;3.150;2023-05-01T12:11:52;20.80;99.90
30206;DHT22;17010;51.306;3.150;2023-05-01T12:14:20;21.00;99.90
30206;DHT22;17010;51.306;3.150;2023-05-01T12:16:49;20.70;99.90
30206;DHT22;17010;51.306;3.150;2023-05-01T12:19:16;20.10;99.90
30206;DHT22;17010;51.306;3.150;2023-05-01T12:21:44;19.90;99.90
30206;DHT22;17010;51.306;3.150;2023-05-01T12:24:12;19.80;99.90
30206;DHT22;17010;51.306;3.150;2023-05-01T12:26:41;19.90;99.90
30206;DHT22;17010;51.306;3.150;2023-05-01T12:29:07;19.90;99.90
30206;DHT22;17010;51.306;3.150;2023-05-01T12:31:35;19.80;99.90
30206;DHT22;17010;51.306;3.150;2023-05-01T12:34:06;19.90;99.90
30206;DHT22;17010;51.306;3.150;2023-05-01T12:36:34;19.60;99.90
30206;DHT22;17010;51.306;3.150;2023-05-01T12:39:01;19.30;99.90
30206;DHT22;17010;51.306;3.150;2023-05-01T12:44:25;19.80;99.90
30206;DHT22;17010;51.306;3.150;2023-05-01T12:47:01;20.30;99.90
30206;DHT22;17010;51.306;3.150;2023-05-01T12:49:28;20.40;99.90
30206;DHT22;17010;51.306;3.150;2023-05-01T12:51:58;20.80;99.90
30206;DHT22;17010;51.306;3.150;2023-05-01T12:54:48;20.60;99.90
30206;DHT22;17010;51.306;3.150;2023-05-01T12:57:15;20.40;99.90
30206;DHT22;17010;51.306;3.150;2023-05-01T12:59:44;20.40;99.90
30206;DHT22;17010;51.306;3.150;2023-05-01T13:02:12;20.60;99.90
30206;DHT22;17010;51.306;3.150;2023-05-01T13:04:44;20.70;99.90
30206;DHT22;17010;51.306;3.150;2023-05-01T13:07:16;20.40;99.90
30206;DHT22;17010;51.306;3.150;2023-05-01T13:09:53;20.20;99.90
30206;DHT22;17010;51.306;3.150;2023-05-01T13:12:20;20.10;99.90
30206;DHT22;17010;51.306;3.150;2023-05-01T13:14:47;20.60;99.90
30206;DHT22;17010;51.306;3.150;2023-05-01T13:17:28;21.00;99.90
30206;DHT22;17010;51.306;3.150;2023-05-01T13:19:55;20.80;99.90
30206;DHT22;17010;51.306;3.150;2023-05-01T13:22:30;21.20;99.90
30206;DHT22;17010;51.306;3.150;2023-05-01T13:24:57;21.00;99.90
30206;DHT22;17010;51.306;3.150;2023-05-01T13:27:23;21.30;99.90
30206;DHT22;17010;51.306;3.150;2023-05-01T13:29:54;21.30;99.90
30206;DHT22;17010;51.306;3.150;2023-05-01T13:32:24;21.20;99.90
30206;DHT22;17010;51.306;3.150;2023-05-01T13:34:51;21.00;99.90
30206;DHT22;17010;51.306;3.150;2023-05-01T13:37:20;21.10;99.90
30206;DHT22;17010;51.306;3.150;2023-05-01T13:39:47;20.90;99.90
30206;DHT22;17010;51.306;3.150;2023-05-01T13:42:23;20.40;99.90
30206;DHT22;17010;51.306;3.150;2023-05-01T13:44:54;20.00;99.90
30206;DHT22;17010;51.306;3.150;2023-05-01T13:47:22;19.80;99.90
30206;DHT22;17010;51.306;3.150;2023-05-01T13:49:51;19.50;99.90
30206;DHT22;17010;51.306;3.150;2023-05-01T13:52:18;19.60;99.90
30206;DHT22;17010;51.306;3.150;2023-05-01T13:54:46;19.70;99.90
30206;DHT22;17010;51.306;3.150;2023-05-01T13:57:13;19.90;99.90
30206;DHT22;17010;51.306;3.150;2023-05-01T13:59:45;19.90;99.90
30206;DHT22;17010;51.306;3.150;2023-05-01T14:02:27;19.50;99.90
30206;DHT22;17010;51.306;3.150;2023-05-01T14:04:54;19.40;99.90
30206;DHT22;17010;51.306;3.150;2023-05-01T14:07:22;19.00;99.90
30206;DHT22;17010;51.306;3.150;2023-05-01T14:09:53;19.00;99.90
30206;DHT22;17010;51.306;3.150;2023-05-01T14:12:23;19.00;99.90
30206;DHT22;17010;51.306;3.150;2023-05-01T14:14:51;18.70;99.90
30206;DHT22;17010;51.306;3.150;2023-05-01T14:17:18;18.50;99.90
30206;DHT22;17010;51.306;3.150;2023-05-01T14:19:46;18.60;99.90
30206;DHT22;17010;51.306;3.150;2023-05-01T14:22:16;18.60;99.90
30206;DHT22;17010;51.306;3.150;2023-05-01T14:24:43;18.50;99.90
30206;DHT22;17010;51.306;3.150;2023-05-01T14:27:11;18.60;99.90
30206;DHT22;17010;51.306;3.150;2023-05-01T14:29:38;18.50;99.90
30206;DHT22;17010;51.306;3.150;2023-05-01T14:32:06;18.10;99.90
30206;DHT22;17010;51.306;3.150;2023-05-01T14:34:33;17.80;99.90
30206;DHT22;17010;51.306;3.150;2023-05-01T14:36:59;17.40;99.90
30206;DHT22;17010;51.306;3.150;2023-05-01T14:39:26;17.00;99.90
30206;DHT22;17010;51.306;3.150;2023-05-01T14:41:58;17.00;99.90
30206;DHT22;17010;51.306;3.150;2023-05-01T14:44:27;16.90;99.90
30206;DHT22;17010;51.306;3.150;2023-05-01T14:46:53;16.80;99.90
30206;DHT22;17010;51.306;3.150;2023-05-01T14:49:21;16.80;99.90
30206;DHT22;17010;51.306;3.150;2023-05-01T14:51:48;16.70;99.90
30206;DHT22;17010;51.306;3.150;2023-05-01T14:54:14;16.60;99.90
30206;DHT22;17010;51.306;3.150;2023-05-01T14:56:42;16.70;99.90
30206;DHT22;17010;51.306;3.150;2023-05-01T14:59:08;16.70;99.90
30206;DHT22;17010;51.306;3.150;2023-05-01T15:01:34;16.50;99.90
30206;DHT22;17010;51.306;3.150;2023-05-01T15:04:01;16.30;99.90
30206;DHT22;17010;51.306;3.150;2023-05-01T15:06:27;16.20;99.90
30206;DHT22;17010;51.306;3.150;2023-05-01T15:08:53;15.90;99.90
30206;DHT22;17010;51.306;3.150;2023-05-01T15:11:20;15.90;99.90
30206;DHT22;17010;51.306;3.150;2023-05-01T15:13:48;15.70;99.90
30206;DHT22;17010;51.306;3.150;2023-05-01T15:16:15;15.50;99.90
30206;DHT22;17010;51.306;3.150;2023-05-01T15:18:42;15.40;99.90
30206;DHT22;17010;51.306;3.150;2023-05-01T15:21:08;15.40;99.90
30206;DHT22;17010;51.306;3.150;2023-05-01T15:23:35;15.40;99.90
30206;DHT22;17010;51.306;3.150;2023-05-01T15:26:02;15.60;99.90
30206;DHT22;17010;51.306;3.150;2023-05-01T15:28:28;15.70;99.90
30206;DHT22;17010;51.306;3.150;2023-05-01T15:30:55;15.80;99.90
30206;DHT22;17010;51.306;3.150;2023-05-01T15:33:23;15.60;99.90
30206;DHT22;17010;51.306;3.150;2023-05-01T15:35:49;15.50;99.90
30206;DHT22;17010;51.306;3.150;2023-05-01T15:38:17;15.40;99.90
30206;DHT22;17010;51.306;3.150;2023-05-01T15:40:45;15.40;99.90
30206;DHT22;17010;51.306;3.150;2023-05-01T15:43:11;15.40;99.90
30206;DHT22;17010;51.306;3.150;2023-05-01T15:45:37;15.40;99.90
30206;DHT22;17010;51.306;3.150;2023-05-01T15:48:09;15.60;99.90
30206;DHT22;17010;51.306;3.150;2023-05-01T15:50:36;15.50;99.90
30206;DHT22;17010;51.306;3.150;2023-05-01T15:53:02;15.50;99.90
30206;DHT22;17010;51.306;3.150;2023-05-01T15:55:29;15.60;99.90
30206;DHT22;17010;51.306;3.150;2023-05-01T15:57:55;15.70;99.90
30206;DHT22;17010;51.306;3.150;2023-05-01T16:00:21;15.60;99.90
30206;DHT22;17010;51.306;3.150;2023-05-01T16:02:48;15.40;99.90
30206;DHT22;17010;51.306;3.150;2023-05-01T16:05:18;15.30;99.90
30206;DHT22;17010;51.306;3.150;2023-05-01T16:07:44;15.40;99.90
30206;DHT22;17010;51.306;3.150;2023-05-01T16:10:11;15.30;99.90